createdAt,value
2018-04-27T00:00:01.327Z,1010.4
2018-04-27T00:00:27.511Z,1010.44
2018-04-27T00:00:53.698Z,1010.4
2018-04-27T00:01:19.979Z,1010.43
2018-04-27T00:01:46.113Z,1010.42
2018-04-27T00:02:12.299Z,1010.44
2018-04-27T00:02:38.494Z,1010.39
2018-04-27T00:03:04.709Z,1010.42
2018-04-27T00:03:30.895Z,1010.4
2018-04-27T00:03:57.080Z,1010.38
2018-04-27T00:04:23.295Z,1010.38
2018-04-27T00:04:49.487Z,1010.41
2018-04-27T00:05:15.706Z,1010.37
2018-04-27T00:05:41.895Z,1010.4
2018-04-27T00:06:08.079Z,1010.4
2018-04-27T00:06:34.268Z,1010.36
2018-04-27T00:07:00.449Z,1010.43
2018-04-27T00:07:26.642Z,1010.37
2018-04-27T00:07:52.823Z,1010.41
2018-04-27T00:08:19.021Z,1010.37
2018-04-27T00:08:45.238Z,1010.4
2018-04-27T00:09:11.457Z,1010.37
2018-04-27T00:09:37.671Z,1010.34
2018-04-27T00:10:03.866Z,1010.34
2018-04-27T00:10:30.055Z,1010.35
2018-04-27T00:10:56.237Z,1010.35
2018-04-27T00:11:22.425Z,1010.33
2018-04-27T00:11:48.620Z,1010.35
2018-04-27T00:12:14.824Z,1010.32
2018-04-27T00:12:41.064Z,1010.34
2018-04-27T00:13:07.265Z,1010.34
2018-04-27T00:13:33.488Z,1010.29
2018-04-27T00:13:59.675Z,1010.31
2018-04-27T00:14:25.874Z,1010.28
2018-04-27T00:14:52.098Z,1010.26
2018-04-27T00:15:18.278Z,1010.28
2018-04-27T00:15:44.461Z,1010.25
2018-04-27T00:16:10.650Z,1010.28
2018-04-27T00:16:36.839Z,1010.23
2018-04-27T00:17:03.063Z,1010.25
2018-04-27T00:17:29.246Z,1010.24
2018-04-27T00:17:55.432Z,1010.21
2018-04-27T00:18:21.659Z,1010.24
2018-04-27T00:18:47.843Z,1010.28
2018-04-27T00:19:14.025Z,1010.27
2018-04-27T00:19:40.217Z,1010.24
2018-04-27T00:20:06.442Z,1010.22
2018-04-27T00:20:32.627Z,1010.22
2018-04-27T00:20:58.815Z,1010.22
2018-04-27T00:21:25.002Z,1010.22
2018-04-27T00:21:51.189Z,1010.17
2018-04-27T00:22:17.374Z,1010.22
2018-04-27T00:22:43.568Z,1010.22
2018-04-27T00:23:09.756Z,1010.22
2018-04-27T00:23:35.945Z,1010.22
2018-04-27T00:24:02.173Z,1010.23
2018-04-27T00:24:28.346Z,1010.2
2018-04-27T00:24:54.539Z,1010.2
2018-04-27T00:25:20.731Z,1010.19
2018-04-27T00:25:46.918Z,1010.23
2018-04-27T00:26:13.103Z,1010.21
2018-04-27T00:26:39.294Z,1010.24
2018-04-27T00:27:05.515Z,1010.23
2018-04-27T00:27:31.703Z,1010.22
2018-04-27T00:27:57.889Z,1010.22
2018-04-27T00:28:24.079Z,1010.2
2018-04-27T00:28:50.267Z,1010.21
2018-04-27T00:29:16.458Z,1010.23
2018-04-27T00:29:42.647Z,1010.21
2018-04-27T00:30:08.842Z,1010.22
2018-04-27T00:30:35.028Z,1010.22
2018-04-27T00:31:01.324Z,1010.19
2018-04-27T00:31:27.442Z,1010.22
2018-04-27T00:31:53.633Z,1010.26
2018-04-27T00:32:19.824Z,1010.23
2018-04-27T00:32:46.006Z,1010.25
2018-04-27T00:33:12.193Z,1010.27
2018-04-27T00:33:38.388Z,1010.24
2018-04-27T00:34:04.579Z,1010.25
2018-04-27T00:34:30.768Z,1010.24
2018-04-27T00:34:56.957Z,1010.24
2018-04-27T00:35:23.135Z,1010.23
2018-04-27T00:35:49.323Z,1010.21
2018-04-27T00:36:15.513Z,1010.17
2018-04-27T00:36:41.693Z,1010.19
2018-04-27T00:37:07.887Z,1010.16
2018-04-27T00:37:34.070Z,1010.16
2018-04-27T00:38:00.257Z,1010.15
2018-04-27T00:38:26.448Z,1010.15
2018-04-27T00:38:52.633Z,1010.14
2018-04-27T00:39:18.816Z,1010.12
2018-04-27T00:39:45.006Z,1010.12
2018-04-27T00:40:11.226Z,1010.12
2018-04-27T00:40:37.422Z,1010.13
2018-04-27T00:41:03.607Z,1010.11
2018-04-27T00:41:29.797Z,1010.1
2018-04-27T00:41:55.975Z,1010.12
2018-04-27T00:42:22.172Z,1010.11
2018-04-27T00:42:48.360Z,1010.1
2018-04-27T00:43:14.553Z,1010.06
2018-04-27T00:43:40.736Z,1010.08
2018-04-27T00:44:06.931Z,1010.07
2018-04-27T00:44:33.118Z,1010.08
2018-04-27T00:44:59.339Z,1010.08
2018-04-27T00:45:25.558Z,1010.07
2018-04-27T00:45:51.792Z,1010.05
2018-04-27T00:46:17.936Z,1010.07
2018-04-27T00:46:44.119Z,1010.08
2018-04-27T00:47:10.308Z,1010
2018-04-27T00:47:36.497Z,1010.02
2018-04-27T00:48:02.689Z,1010.01
2018-04-27T00:48:28.875Z,1010
2018-04-27T00:48:55.138Z,1010.05
2018-04-27T00:49:21.321Z,1010.01
2018-04-27T00:49:47.509Z,1010.01
2018-04-27T00:50:13.706Z,1010.02
2018-04-27T00:50:39.881Z,1010.03
2018-04-27T00:51:06.073Z,1010.02
2018-04-27T00:51:32.260Z,1010
2018-04-27T00:51:58.451Z,1010.03
2018-04-27T00:52:24.639Z,1010.03
2018-04-27T00:52:50.825Z,1009.99
2018-04-27T00:53:17.045Z,1010.02
2018-04-27T00:53:43.235Z,1010.07
2018-04-27T00:54:09.420Z,1010.03
2018-04-27T00:54:35.603Z,1010.07
2018-04-27T00:55:01.823Z,1010.04
2018-04-27T00:55:28.016Z,1010.05
2018-04-27T00:55:54.200Z,1010.02
2018-04-27T00:56:20.424Z,1010.03
2018-04-27T00:56:46.620Z,1010.03
2018-04-27T00:57:12.802Z,1010.01
2018-04-27T00:57:38.987Z,1010.01
2018-04-27T00:58:05.186Z,1010.04
2018-04-27T00:58:31.370Z,1010.02
2018-04-27T00:58:57.550Z,1010.05
2018-04-27T00:59:23.767Z,1010.03
2018-04-27T00:59:49.958Z,1010.05
2018-04-27T01:00:16.145Z,1010.04
2018-04-27T01:00:42.399Z,1010.02
2018-04-27T01:01:08.614Z,1010.02
2018-04-27T01:01:34.838Z,1010.04
2018-04-27T01:02:01.021Z,1010.04
2018-04-27T01:02:27.249Z,1010.05
2018-04-27T01:02:53.440Z,1010.01
2018-04-27T01:03:19.655Z,1010.02
2018-04-27T01:03:45.846Z,1010.01
2018-04-27T01:04:12.037Z,1010.02
2018-04-27T01:04:38.217Z,1010.01
2018-04-27T01:05:04.408Z,1010
2018-04-27T01:05:30.593Z,1010.02
2018-04-27T01:05:56.781Z,1009.99
2018-04-27T01:06:23.042Z,1009.97
2018-04-27T01:06:49.228Z,1009.94
2018-04-27T01:07:15.420Z,1009.98
2018-04-27T01:07:41.598Z,1009.96
2018-04-27T01:08:07.792Z,1009.96
2018-04-27T01:08:33.983Z,1009.96
2018-04-27T01:09:00.173Z,1009.96
2018-04-27T01:09:26.360Z,1010
2018-04-27T01:09:52.545Z,1009.95
2018-04-27T01:10:18.794Z,1009.93
2018-04-27T01:10:45.010Z,1009.94
2018-04-27T01:11:11.199Z,1009.94
2018-04-27T01:11:37.387Z,1009.91
2018-04-27T01:12:03.580Z,1009.89
2018-04-27T01:12:29.774Z,1009.89
2018-04-27T01:12:55.962Z,1009.89
2018-04-27T01:13:22.143Z,1009.88
2018-04-27T01:13:48.415Z,1009.88
2018-04-27T01:14:14.600Z,1009.89
2018-04-27T01:14:40.791Z,1009.88
2018-04-27T01:15:06.981Z,1009.86
2018-04-27T01:15:33.173Z,1009.87
2018-04-27T01:15:59.359Z,1009.84
2018-04-27T01:16:25.580Z,1009.85
2018-04-27T01:16:51.776Z,1009.86
2018-04-27T01:17:17.959Z,1009.87
2018-04-27T01:17:44.145Z,1009.88
2018-04-27T01:18:10.334Z,1009.82
2018-04-27T01:18:36.517Z,1009.83
2018-04-27T01:19:02.711Z,1009.84
2018-04-27T01:19:28.901Z,1009.81
2018-04-27T01:19:55.081Z,1009.83
2018-04-27T01:20:21.271Z,1009.78
2018-04-27T01:20:47.458Z,1009.78
2018-04-27T01:21:13.636Z,1009.84
2018-04-27T01:21:39.830Z,1009.83
2018-04-27T01:22:06.077Z,1009.81
2018-04-27T01:22:32.293Z,1009.81
2018-04-27T01:22:58.479Z,1009.78
2018-04-27T01:23:24.667Z,1009.79
2018-04-27T01:23:50.856Z,1009.82
2018-04-27T01:24:17.087Z,1009.78
2018-04-27T01:24:43.268Z,1009.77
2018-04-27T01:25:09.461Z,1009.78
2018-04-27T01:25:35.672Z,1009.76
2018-04-27T01:26:01.860Z,1009.75
2018-04-27T01:26:28.045Z,1009.77
2018-04-27T01:26:54.277Z,1009.77
2018-04-27T01:27:20.493Z,1009.73
2018-04-27T01:27:46.689Z,1009.75
2018-04-27T01:28:12.875Z,1009.75
2018-04-27T01:28:39.065Z,1009.71
2018-04-27T01:29:05.248Z,1009.74
2018-04-27T01:29:31.478Z,1009.72
2018-04-27T01:29:57.660Z,1009.69
2018-04-27T01:30:23.852Z,1009.72
2018-04-27T01:30:50.040Z,1009.68
2018-04-27T01:31:16.225Z,1009.71
2018-04-27T01:31:42.449Z,1009.7
2018-04-27T01:32:08.671Z,1009.67
2018-04-27T01:32:34.854Z,1009.66
2018-04-27T01:33:01.048Z,1009.68
2018-04-27T01:33:27.236Z,1009.71
2018-04-27T01:33:53.427Z,1009.68
2018-04-27T01:34:19.617Z,1009.71
2018-04-27T01:34:45.802Z,1009.68
2018-04-27T01:35:11.986Z,1009.71
2018-04-27T01:35:38.178Z,1009.7
2018-04-27T01:36:04.358Z,1009.72
2018-04-27T01:36:30.555Z,1009.69
2018-04-27T01:36:56.736Z,1009.7
2018-04-27T01:37:22.931Z,1009.7
2018-04-27T01:37:49.150Z,1009.7
2018-04-27T01:38:15.374Z,1009.75
2018-04-27T01:38:41.560Z,1009.72
2018-04-27T01:39:07.778Z,1009.71
2018-04-27T01:39:33.997Z,1009.74
2018-04-27T01:40:00.220Z,1009.7
2018-04-27T01:40:26.441Z,1009.71
2018-04-27T01:40:52.630Z,1009.69
2018-04-27T01:41:18.815Z,1009.72
2018-04-27T01:41:45.004Z,1009.68
2018-04-27T01:42:11.225Z,1009.69
2018-04-27T01:42:37.408Z,1009.62
2018-04-27T01:43:03.596Z,1009.62
2018-04-27T01:43:29.780Z,1009.68
2018-04-27T01:43:55.967Z,1009.64
2018-04-27T01:44:22.150Z,1009.62
2018-04-27T01:44:48.334Z,1009.65
2018-04-27T01:45:14.522Z,1009.63
2018-04-27T01:45:40.712Z,1009.63
2018-04-27T01:46:06.908Z,1009.6
2018-04-27T01:46:33.084Z,1009.59
2018-04-27T01:46:59.305Z,1009.61
2018-04-27T01:47:25.491Z,1009.58
2018-04-27T01:47:51.675Z,1009.58
2018-04-27T01:48:17.896Z,1009.56
2018-04-27T01:48:44.124Z,1009.55
2018-04-27T01:49:10.347Z,1009.57
2018-04-27T01:49:36.533Z,1009.58
2018-04-27T01:50:02.720Z,1009.55
2018-04-27T01:50:28.914Z,1009.53
2018-04-27T01:50:55.105Z,1009.59
2018-04-27T01:51:21.283Z,1009.55
2018-04-27T01:51:47.506Z,1009.56
2018-04-27T01:52:13.665Z,1009.5
2018-04-27T01:52:39.858Z,1009.54
2018-04-27T01:53:06.049Z,1009.53
2018-04-27T01:53:32.270Z,1009.52
2018-04-27T01:53:58.456Z,1009.52
2018-04-27T01:54:24.648Z,1009.5
2018-04-27T01:54:50.828Z,1009.53
2018-04-27T01:55:17.009Z,1009.56
2018-04-27T01:55:43.200Z,1009.55
2018-04-27T01:56:09.389Z,1009.55
2018-04-27T01:56:35.571Z,1009.53
2018-04-27T01:57:01.762Z,1009.54
2018-04-27T01:57:27.945Z,1009.55
2018-04-27T01:57:54.135Z,1009.58
2018-04-27T01:58:20.317Z,1009.54
2018-04-27T01:58:46.514Z,1009.56
2018-04-27T01:59:12.698Z,1009.56
2018-04-27T01:59:38.893Z,1009.55
2018-04-27T02:00:05.109Z,1009.57
2018-04-27T02:00:31.290Z,1009.57
2018-04-27T02:00:57.487Z,1009.6
2018-04-27T02:01:23.718Z,1009.59
2018-04-27T02:01:49.919Z,1009.59
2018-04-27T02:02:16.104Z,1009.6
2018-04-27T02:02:42.292Z,1009.59
2018-04-27T02:03:08.477Z,1009.57
2018-04-27T02:03:34.669Z,1009.63
2018-04-27T02:04:00.857Z,1009.67
2018-04-27T02:04:27.113Z,1009.62
2018-04-27T02:04:53.301Z,1009.59
2018-04-27T02:05:19.483Z,1009.58
2018-04-27T02:05:45.671Z,1009.63
2018-04-27T02:06:11.858Z,1009.64
2018-04-27T02:06:38.046Z,1009.62
2018-04-27T02:07:04.262Z,1009.63
2018-04-27T02:07:30.449Z,1009.64
2018-04-27T02:07:56.634Z,1009.63
2018-04-27T02:08:22.851Z,1009.63
2018-04-27T02:08:49.068Z,1009.58
2018-04-27T02:09:15.294Z,1009.6
2018-04-27T02:09:41.410Z,1009.6
2018-04-27T02:10:07.563Z,1009.59
2018-04-27T02:10:33.730Z,1009.6
2018-04-27T02:10:59.908Z,1009.59
2018-04-27T02:11:26.074Z,1009.56
2018-04-27T02:11:52.269Z,1009.56
2018-04-27T02:12:18.412Z,1009.55
2018-04-27T02:12:44.563Z,1009.57
2018-04-27T02:13:10.706Z,1009.53
2018-04-27T02:13:36.861Z,1009.53
2018-04-27T02:14:02.988Z,1009.52
2018-04-27T02:14:29.120Z,1009.51
2018-04-27T02:14:55.266Z,1009.48
2018-04-27T02:15:21.404Z,1009.51
2018-04-27T02:15:47.535Z,1009.52
2018-04-27T02:16:13.672Z,1009.52
2018-04-27T02:16:39.837Z,1009.52
2018-04-27T02:17:05.982Z,1009.54
2018-04-27T02:17:32.159Z,1009.52
2018-04-27T02:17:58.296Z,1009.51
2018-04-27T02:18:24.442Z,1009.51
2018-04-27T02:18:50.600Z,1009.51
2018-04-27T02:19:16.737Z,1009.49
2018-04-27T02:19:42.878Z,1009.47
2018-04-27T02:20:09.010Z,1009.48
2018-04-27T02:20:35.148Z,1009.48
2018-04-27T02:21:01.288Z,1009.47
2018-04-27T02:21:27.426Z,1009.47
2018-04-27T02:21:53.565Z,1009.47
2018-04-27T02:22:19.705Z,1009.46
2018-04-27T02:22:45.836Z,1009.46
2018-04-27T02:23:11.969Z,1009.42
2018-04-27T02:23:38.109Z,1009.48
2018-04-27T02:24:04.242Z,1009.46
2018-04-27T02:24:30.387Z,1009.47
2018-04-27T02:24:56.563Z,1009.44
2018-04-27T02:25:22.706Z,1009.46
2018-04-27T02:25:48.857Z,1009.45
2018-04-27T02:26:14.997Z,1009.44
2018-04-27T02:26:41.129Z,1009.43
2018-04-27T02:27:07.269Z,1009.42
2018-04-27T02:27:33.403Z,1009.46
2018-04-27T02:27:59.569Z,1009.42
2018-04-27T02:28:25.706Z,1009.46
2018-04-27T02:28:51.841Z,1009.41
2018-04-27T02:29:17.985Z,1009.41
2018-04-27T02:29:44.168Z,1009.4
2018-04-27T02:30:10.332Z,1009.4
2018-04-27T02:30:36.492Z,1009.39
2018-04-27T02:31:02.652Z,1009.37
2018-04-27T02:31:28.783Z,1009.39
2018-04-27T02:31:54.921Z,1009.41
2018-04-27T02:32:21.085Z,1009.37
2018-04-27T02:32:47.248Z,1009.38
2018-04-27T02:33:13.404Z,1009.39
2018-04-27T02:33:39.562Z,1009.36
2018-04-27T02:34:05.726Z,1009.38
2018-04-27T02:34:31.898Z,1009.35
2018-04-27T02:34:58.075Z,1009.3
2018-04-27T02:35:24.207Z,1009.31
2018-04-27T02:35:50.357Z,1009.34
2018-04-27T02:36:16.546Z,1009.28
2018-04-27T02:36:42.676Z,1009.28
2018-04-27T02:37:08.811Z,1009.29
2018-04-27T02:37:34.945Z,1009.3
2018-04-27T02:38:01.095Z,1009.32
2018-04-27T02:38:27.249Z,1009.31
2018-04-27T02:38:53.398Z,1009.29
2018-04-27T02:39:19.565Z,1009.29
2018-04-27T02:39:45.690Z,1009.32
2018-04-27T02:40:11.827Z,1009.3
2018-04-27T02:40:37.961Z,1009.31
2018-04-27T02:41:04.172Z,1009.33
2018-04-27T02:41:30.340Z,1009.3
2018-04-27T02:41:56.499Z,1009.29
2018-04-27T02:42:22.684Z,1009.28
2018-04-27T02:42:48.847Z,1009.28
2018-04-27T02:43:15.013Z,1009.27
2018-04-27T02:43:41.169Z,1009.27
2018-04-27T02:44:07.340Z,1009.26
2018-04-27T02:44:33.500Z,1009.31
2018-04-27T02:44:59.660Z,1009.29
2018-04-27T02:45:25.822Z,1009.28
2018-04-27T02:45:52.007Z,1009.29
2018-04-27T02:46:18.170Z,1009.27
2018-04-27T02:46:44.332Z,1009.29
2018-04-27T02:47:10.508Z,1009.29
2018-04-27T02:47:36.670Z,1009.28
2018-04-27T02:48:02.826Z,1009.32
2018-04-27T02:48:28.985Z,1009.26
2018-04-27T02:48:55.167Z,1009.25
2018-04-27T02:49:21.334Z,1009.28
2018-04-27T02:49:47.473Z,1009.25
2018-04-27T02:50:13.657Z,1009.23
2018-04-27T02:50:39.816Z,1009.24
2018-04-27T02:51:05.980Z,1009.29
2018-04-27T02:51:32.112Z,1009.26
2018-04-27T02:51:58.250Z,1009.24
2018-04-27T02:52:24.421Z,1009.25
2018-04-27T02:52:50.608Z,1009.29
2018-04-27T02:53:16.770Z,1009.26
2018-04-27T02:53:42.909Z,1009.25
2018-04-27T02:54:09.051Z,1009.29
2018-04-27T02:54:35.233Z,1009.29
2018-04-27T02:55:01.403Z,1009.3
2018-04-27T02:55:27.543Z,1009.26
2018-04-27T02:55:53.694Z,1009.24
2018-04-27T02:56:19.829Z,1009.26
2018-04-27T02:56:45.970Z,1009.25
2018-04-27T02:57:12.117Z,1009.26
2018-04-27T02:57:38.294Z,1009.25
2018-04-27T02:58:04.446Z,1009.27
2018-04-27T02:58:30.578Z,1009.26
2018-04-27T02:58:56.759Z,1009.24
2018-04-27T02:59:22.891Z,1009.3
2018-04-27T02:59:49.029Z,1009.3
2018-04-27T03:00:15.170Z,1009.26
2018-04-27T03:00:41.304Z,1009.29
2018-04-27T03:01:07.472Z,1009.29
2018-04-27T03:01:33.635Z,1009.26
2018-04-27T03:01:59.774Z,1009.26
2018-04-27T03:02:25.910Z,1009.26
2018-04-27T03:02:52.068Z,1009.25
2018-04-27T03:03:18.239Z,1009.27
2018-04-27T03:03:44.383Z,1009.27
2018-04-27T03:04:10.563Z,1009.26
2018-04-27T03:04:36.722Z,1009.27
2018-04-27T03:05:02.895Z,1009.29
2018-04-27T03:05:29.030Z,1009.26
2018-04-27T03:05:55.176Z,1009.26
2018-04-27T03:06:21.309Z,1009.26
2018-04-27T03:06:47.489Z,1009.25
2018-04-27T03:07:13.653Z,1009.23
2018-04-27T03:07:39.799Z,1009.22
2018-04-27T03:08:06.002Z,1009.27
2018-04-27T03:08:32.144Z,1009.25
2018-04-27T03:08:58.302Z,1009.25
2018-04-27T03:09:24.469Z,1009.23
2018-04-27T03:09:50.626Z,1009.2
2018-04-27T03:10:16.805Z,1009.24
2018-04-27T03:10:42.942Z,1009.24
2018-04-27T03:11:09.086Z,1009.23
2018-04-27T03:11:35.241Z,1009.22
2018-04-27T03:12:01.373Z,1009.19
2018-04-27T03:12:27.507Z,1009.22
2018-04-27T03:12:53.665Z,1009.23
2018-04-27T03:13:19.815Z,1009.19
2018-04-27T03:13:45.947Z,1009.2
2018-04-27T03:14:12.109Z,1009.19
2018-04-27T03:14:38.266Z,1009.23
2018-04-27T03:15:04.402Z,1009.2
2018-04-27T03:15:30.580Z,1009.22
2018-04-27T03:15:56.719Z,1009.21
2018-04-27T03:16:22.853Z,1009.23
2018-04-27T03:16:49.033Z,1009.21
2018-04-27T03:17:15.171Z,1009.17
2018-04-27T03:17:41.306Z,1009.18
2018-04-27T03:18:07.437Z,1009.19
2018-04-27T03:18:33.580Z,1009.19
2018-04-27T03:18:59.715Z,1009.17
2018-04-27T03:19:25.847Z,1009.18
2018-04-27T03:19:51.985Z,1009.14
2018-04-27T03:20:18.151Z,1009.19
2018-04-27T03:20:44.290Z,1009.17
2018-04-27T03:21:10.425Z,1009.17
2018-04-27T03:21:36.559Z,1009.16
2018-04-27T03:22:02.720Z,1009.18
2018-04-27T03:22:28.862Z,1009.15
2018-04-27T03:22:55.036Z,1009.15
2018-04-27T03:23:21.209Z,1009.16
2018-04-27T03:23:47.414Z,1009.17
2018-04-27T03:24:13.503Z,1009.16
2018-04-27T03:24:39.640Z,1009.14
2018-04-27T03:25:05.787Z,1009.16
2018-04-27T03:25:31.951Z,1009.14
2018-04-27T03:25:58.112Z,1009.11
2018-04-27T03:26:24.244Z,1009.12
2018-04-27T03:26:50.376Z,1009.09
2018-04-27T03:27:16.516Z,1009.1
2018-04-27T03:27:42.653Z,1009.1
2018-04-27T03:28:08.788Z,1009.13
2018-04-27T03:28:34.952Z,1009.09
2018-04-27T03:29:01.099Z,1009.11
2018-04-27T03:29:27.230Z,1009.07
2018-04-27T03:29:53.392Z,1009.07
2018-04-27T03:30:19.578Z,1009.07
2018-04-27T03:30:45.781Z,1009.09
2018-04-27T03:31:11.962Z,1009.1
2018-04-27T03:31:38.179Z,1009.04
2018-04-27T03:32:04.389Z,1009.05
2018-04-27T03:32:30.561Z,1009.06
2018-04-27T03:32:56.695Z,1009.08
2018-04-27T03:33:22.836Z,1009.05
2018-04-27T03:33:48.991Z,1009.1
2018-04-27T03:34:15.136Z,1009.05
2018-04-27T03:34:41.264Z,1009.06
2018-04-27T03:35:07.398Z,1009.06
2018-04-27T03:35:33.553Z,1009.04
2018-04-27T03:35:59.687Z,1009.05
2018-04-27T03:36:25.828Z,1009.05
2018-04-27T03:36:51.963Z,1009.02
2018-04-27T03:37:18.096Z,1009.04
2018-04-27T03:37:44.254Z,1009.05
2018-04-27T03:38:10.397Z,1009.06
2018-04-27T03:38:36.542Z,1009.06
2018-04-27T03:39:02.678Z,1009.01
2018-04-27T03:39:28.814Z,1009.05
2018-04-27T03:39:54.950Z,1009.04
2018-04-27T03:40:21.081Z,1009.03
2018-04-27T03:40:47.217Z,1009.04
2018-04-27T03:41:13.358Z,1009.01
2018-04-27T03:41:39.498Z,1009.06
2018-04-27T03:42:05.628Z,1009.04
2018-04-27T03:42:31.768Z,1009.06
2018-04-27T03:42:57.906Z,1009.02
2018-04-27T03:43:24.049Z,1009.06
2018-04-27T03:43:50.209Z,1009
2018-04-27T03:44:16.341Z,1009.04
2018-04-27T03:44:42.484Z,1009.01
2018-04-27T03:45:08.618Z,1009.05
2018-04-27T03:45:34.760Z,1009
2018-04-27T03:46:00.898Z,1009.01
2018-04-27T03:46:27.041Z,1009.02
2018-04-27T03:46:53.192Z,1008.99
2018-04-27T03:47:19.335Z,1008.97
2018-04-27T03:47:45.470Z,1008.98
2018-04-27T03:48:11.611Z,1008.99
2018-04-27T03:48:37.750Z,1008.98
2018-04-27T03:49:03.911Z,1008.98
2018-04-27T03:49:30.047Z,1009
2018-04-27T03:49:56.193Z,1009.03
2018-04-27T03:50:22.339Z,1009.02
2018-04-27T03:50:48.523Z,1008.99
2018-04-27T03:51:14.609Z,1009.02
2018-04-27T03:51:40.751Z,1009
2018-04-27T03:52:06.885Z,1009.01
2018-04-27T03:52:33.019Z,1009.01
2018-04-27T03:52:59.189Z,1008.99
2018-04-27T03:53:25.329Z,1008.97
2018-04-27T03:53:51.464Z,1008.98
2018-04-27T03:54:17.594Z,1009
2018-04-27T03:54:43.737Z,1009
2018-04-27T03:55:09.869Z,1008.99
2018-04-27T03:55:36.000Z,1008.99
2018-04-27T03:56:02.139Z,1008.99
2018-04-27T03:56:28.282Z,1008.99
2018-04-27T03:56:54.412Z,1009
2018-04-27T03:57:20.557Z,1008.99
2018-04-27T03:57:46.691Z,1009
2018-04-27T03:58:12.830Z,1008.97
2018-04-27T03:58:38.974Z,1008.99
2018-04-27T03:59:05.130Z,1008.96
2018-04-27T03:59:31.268Z,1008.9
2018-04-27T03:59:57.399Z,1008.91
2018-04-27T04:00:23.540Z,1008.93
2018-04-27T04:00:49.673Z,1008.93
2018-04-27T04:01:15.918Z,1008.92
2018-04-27T04:01:41.946Z,1008.97
2018-04-27T04:02:08.075Z,1008.96
2018-04-27T04:02:34.212Z,1008.94
2018-04-27T04:03:00.349Z,1009.01
2018-04-27T04:03:26.506Z,1008.96
2018-04-27T04:03:52.648Z,1008.98
2018-04-27T04:04:18.785Z,1009.01
2018-04-27T04:04:44.938Z,1009
2018-04-27T04:05:11.071Z,1008.98
2018-04-27T04:05:37.213Z,1009.02
2018-04-27T04:06:03.345Z,1008.97
2018-04-27T04:06:29.492Z,1008.95
2018-04-27T04:06:55.626Z,1008.95
2018-04-27T04:07:21.770Z,1008.94
2018-04-27T04:07:47.903Z,1008.96
2018-04-27T04:08:14.036Z,1008.98
2018-04-27T04:08:40.175Z,1008.93
2018-04-27T04:09:06.309Z,1008.93
2018-04-27T04:09:32.442Z,1008.98
2018-04-27T04:09:58.608Z,1008.94
2018-04-27T04:10:24.715Z,1008.96
2018-04-27T04:10:50.890Z,1008.94
2018-04-27T04:11:16.994Z,1008.9
2018-04-27T04:11:43.137Z,1008.93
2018-04-27T04:12:09.270Z,1008.9
2018-04-27T04:12:35.414Z,1008.9
2018-04-27T04:13:01.554Z,1008.91
2018-04-27T04:13:27.683Z,1008.88
2018-04-27T04:13:53.820Z,1008.86
2018-04-27T04:14:19.961Z,1008.84
2018-04-27T04:14:46.112Z,1008.89
2018-04-27T04:15:12.253Z,1008.86
2018-04-27T04:15:38.389Z,1008.86
2018-04-27T04:16:04.522Z,1008.9
2018-04-27T04:16:30.659Z,1008.87
2018-04-27T04:16:56.790Z,1008.87
2018-04-27T04:17:22.929Z,1008.9
2018-04-27T04:17:49.065Z,1008.91
2018-04-27T04:18:15.206Z,1008.86
2018-04-27T04:18:41.335Z,1008.89
2018-04-27T04:19:07.493Z,1008.86
2018-04-27T04:19:33.645Z,1008.84
2018-04-27T04:19:59.790Z,1008.89
2018-04-27T04:20:25.917Z,1008.85
2018-04-27T04:20:52.050Z,1008.88
2018-04-27T04:21:18.185Z,1008.84
2018-04-27T04:21:44.375Z,1008.84
2018-04-27T04:22:10.510Z,1008.85
2018-04-27T04:22:36.652Z,1008.87
2018-04-27T04:23:02.804Z,1008.85
2018-04-27T04:23:28.938Z,1008.88
2018-04-27T04:23:55.094Z,1008.89
2018-04-27T04:24:21.232Z,1008.88
2018-04-27T04:24:47.371Z,1008.88
2018-04-27T04:25:13.506Z,1008.88
2018-04-27T04:25:39.645Z,1008.89
2018-04-27T04:26:05.783Z,1008.83
2018-04-27T04:26:31.922Z,1008.85
2018-04-27T04:26:58.060Z,1008.85
2018-04-27T04:27:24.266Z,1008.84
2018-04-27T04:27:50.405Z,1008.83
2018-04-27T04:28:16.540Z,1008.85
2018-04-27T04:28:42.676Z,1008.86
2018-04-27T04:29:08.853Z,1008.83
2018-04-27T04:29:34.985Z,1008.82
2018-04-27T04:30:01.132Z,1008.82
2018-04-27T04:30:27.283Z,1008.84
2018-04-27T04:30:53.455Z,1008.85
2018-04-27T04:31:19.586Z,1008.84
2018-04-27T04:31:45.747Z,1008.85
2018-04-27T04:32:11.866Z,1008.85
2018-04-27T04:32:38.000Z,1008.83
2018-04-27T04:33:04.139Z,1008.84
2018-04-27T04:33:30.275Z,1008.92
2018-04-27T04:33:56.417Z,1008.9
2018-04-27T04:34:22.570Z,1008.9
2018-04-27T04:34:48.702Z,1008.88
2018-04-27T04:35:14.840Z,1008.87
2018-04-27T04:35:40.978Z,1008.88
2018-04-27T04:36:07.117Z,1008.89
2018-04-27T04:36:33.277Z,1008.88
2018-04-27T04:36:59.417Z,1008.85
2018-04-27T04:37:25.583Z,1008.84
2018-04-27T04:37:51.752Z,1008.88
2018-04-27T04:38:17.918Z,1008.88
2018-04-27T04:38:44.052Z,1008.88
2018-04-27T04:39:10.191Z,1008.87
2018-04-27T04:39:36.347Z,1008.87
2018-04-27T04:40:02.479Z,1008.88
2018-04-27T04:40:28.643Z,1008.86
2018-04-27T04:40:54.776Z,1008.92
2018-04-27T04:41:20.914Z,1008.89
2018-04-27T04:41:47.048Z,1008.91
2018-04-27T04:42:13.199Z,1008.89
2018-04-27T04:42:39.349Z,1008.9
2018-04-27T04:43:05.479Z,1008.93
2018-04-27T04:43:31.611Z,1008.93
2018-04-27T04:43:57.776Z,1008.93
2018-04-27T04:44:23.919Z,1008.92
2018-04-27T04:44:50.060Z,1008.97
2018-04-27T04:45:16.214Z,1008.97
2018-04-27T04:45:42.344Z,1008.96
2018-04-27T04:46:08.486Z,1008.95
2018-04-27T04:46:34.623Z,1008.98
2018-04-27T04:47:00.758Z,1009
2018-04-27T04:47:26.914Z,1008.98
2018-04-27T04:47:53.070Z,1008.98
2018-04-27T04:48:19.236Z,1008.99
2018-04-27T04:48:45.389Z,1008.99
2018-04-27T04:49:11.556Z,1008.99
2018-04-27T04:49:37.727Z,1009
2018-04-27T04:50:03.884Z,1009.01
2018-04-27T04:50:30.032Z,1009
2018-04-27T04:50:56.175Z,1008.97
2018-04-27T04:51:22.306Z,1009.01
2018-04-27T04:51:48.453Z,1009.02
2018-04-27T04:52:14.586Z,1009.01
2018-04-27T04:52:40.818Z,1008.99
2018-04-27T04:53:06.901Z,1009
2018-04-27T04:53:33.071Z,1009.01
2018-04-27T04:53:59.209Z,1008.97
2018-04-27T04:54:25.343Z,1008.99
2018-04-27T04:54:51.481Z,1008.97
2018-04-27T04:55:17.642Z,1008.96
2018-04-27T04:55:43.806Z,1008.98
2018-04-27T04:56:09.968Z,1008.96
2018-04-27T04:56:36.105Z,1008.98
2018-04-27T04:57:02.242Z,1009.01
2018-04-27T04:57:28.378Z,1008.99
2018-04-27T04:57:54.520Z,1008.99
2018-04-27T04:58:20.657Z,1009
2018-04-27T04:58:46.793Z,1008.93
2018-04-27T04:59:12.944Z,1009
2018-04-27T04:59:39.084Z,1009
2018-04-27T05:00:05.243Z,1009.02
2018-04-27T05:00:31.385Z,1009.03
2018-04-27T05:00:57.523Z,1009.04
2018-04-27T05:01:23.685Z,1009.02
2018-04-27T05:01:49.846Z,1009.01
2018-04-27T05:02:16.001Z,1009.03
2018-04-27T05:02:42.188Z,1009.01
2018-04-27T05:03:08.306Z,1009.01
2018-04-27T05:03:34.443Z,1009.01
2018-04-27T05:04:00.581Z,1009.02
2018-04-27T05:04:26.714Z,1009.01
2018-04-27T05:04:52.850Z,1008.96
2018-04-27T05:05:18.987Z,1008.98
2018-04-27T05:05:45.122Z,1009.01
2018-04-27T05:06:11.265Z,1009
2018-04-27T05:06:37.392Z,1009.01
2018-04-27T05:07:03.537Z,1009.02
2018-04-27T05:07:29.693Z,1009
2018-04-27T05:07:55.837Z,1009
2018-04-27T05:08:21.991Z,1009.02
2018-04-27T05:08:48.117Z,1008.99
2018-04-27T05:09:14.248Z,1009
2018-04-27T05:09:40.388Z,1009.02
2018-04-27T05:10:06.525Z,1008.99
2018-04-27T05:10:32.747Z,1009
2018-04-27T05:10:58.796Z,1009
2018-04-27T05:11:24.955Z,1009.03
2018-04-27T05:11:51.105Z,1008.97
2018-04-27T05:12:17.241Z,1009
2018-04-27T05:12:43.411Z,1008.94
2018-04-27T05:13:09.511Z,1008.96
2018-04-27T05:13:35.652Z,1008.98
2018-04-27T05:14:01.781Z,1009
2018-04-27T05:14:27.925Z,1008.96
2018-04-27T05:14:54.054Z,1008.96
2018-04-27T05:15:20.200Z,1008.97
2018-04-27T05:15:46.331Z,1008.96
2018-04-27T05:16:12.471Z,1008.96
2018-04-27T05:16:38.602Z,1008.96
2018-04-27T05:17:04.772Z,1008.95
2018-04-27T05:17:30.906Z,1008.93
2018-04-27T05:17:57.047Z,1008.94